Terminal Aerodrome Forecast
Issued by NWS

Home | Current Version | Previous Version | Text Only | Print | Product List | Glossary On
Versions: 1 2 3 4 5 6 7 8 9 10 11 12 13 14 15 16 17 18 19 20 21 22 23 24 25 26 27 28 29 30 31 32 33
219
FTUS41 KOKX 201206 AAA
TAFGON
TAF AMD
KGON 201206Z 2012/2112 24012KT P6SM FEW200
     FM201700 25015G25KT P6SM FEW200
     FM202200 27009KT P6SM FEW200
     FM210900 31007KT P6SM FEW020 SCT200=

USA.gov is the U.S. government's official web portal to all federal, state and local government web resources and services.